Kirtley, Wyoming
Current Conditions -  °F | °C
As of 2:35 PM on Friday 24 Oct 2014 (Local Time) from KGUR Reporting Station
Clear Clear  
Wind Chill: 88°   Ceiling: Unl
Heat Index: 88°   Visibility: 10mi
Dew Point: 28°   Wind: 17mph
Humidity: 11%   Direction: 250°WSW
Pressure: 30.05"   Gusts: 28mph
Location:  42.8183°N, 104.414°W
Report Text: KGUR 242035Z AUTO 25015G24KT 10SM CLR 31/M02 A3005 RMK AO2 T03101024
Loading
Personal Weather Stations






























Interactive Weather Map
Tropical Storm Tracking
New forecast layout! Learn more

10-Day Weather Forecast

Advertisements
Track Severe Weather on mobile